Time;durP1;ratioP1;P1;durP2;ratioP2;P2;SDS_P1;SDS_P2;PMS_P1;PMS_P2;Temp;Humidity;BMP_temperature;BMP_pressure;BME280_temperature;BME280_humidity;BME280_pressure;Samples;Min_cycle;Max_cycle;Signal;HPM_P1;HPM_P2
2023/06/14 00:01:25;;;;;;;0.00;0.00;;;;;;;;;;6161798;23;20024;-79
2023/06/14 00:04:10;;;;;;;0.00;0.00;;;;;;;;;;6162703;23;20021;-80
2023/06/14 00:06:56;;;;;;;0.00;0.00;;;;;;;;;;6162748;23;20080;-79
2023/06/14 00:09:45;;;;;;;0.00;0.00;;;;;;;;;;6163973;23;20540;-79
2023/06/14 00:16:22;;;;;;;0.00;0.00;;;;;;;;;;6162132;23;20231;-79
2023/06/14 00:19:14;;;;;;;0.00;0.00;;;;;;;;;;6162360;23;20285;-79
2023/06/14 00:22:05;;;;;;;0.00;0.00;;;;;;;;;;6163394;23;20187;-79
2023/06/14 00:24:51;;;;;;;0.00;0.00;;;;;;;;;;6162969;23;20021;-79
2023/06/14 00:27:37;;;;;;;0.08;0.00;;;;;;;;;;6163352;23;20021;-79
2023/06/14 00:30:23;;;;;;;0.00;0.00;;;;;;;;;;6161821;23;20045;-79
2023/06/14 00:33:09;;;;;;;0.00;0.00;;;;;;;;;;6162123;23;20720;-79
2023/06/14 00:35:54;;;;;;;0.00;0.00;;;;;;;;;;6162174;23;20017;-79
2023/06/14 00:38:43;;;;;;;0.00;0.00;;;;;;;;;;6162349;23;20021;-79
2023/06/14 00:41:28;;;;;;;0.00;0.00;;;;;;;;;;6161072;23;20013;-79
2023/06/14 00:44:16;;;;;;;0.00;0.00;;;;;;;;;;6161595;23;20017;-79
2023/06/14 00:47:01;;;;;;;0.00;0.00;;;;;;;;;;6162464;23;20040;-79
2023/06/14 00:49:48;;;;;;;0.00;0.00;;;;;;;;;;6161403;23;20021;-79
2023/06/14 00:52:34;;;;;;;0.00;0.00;;;;;;;;;;6161490;23;20120;-79
2023/06/14 00:55:20;;;;;;;0.00;0.00;;;;;;;;;;6161493;23;20013;-79
2023/06/14 00:58:06;;;;;;;0.00;0.00;;;;;;;;;;6163755;23;20430;-79
2023/06/14 01:00:51;;;;;;;0.00;0.00;;;;;;;;;;6162098;23;20024;-79
2023/06/14 01:03:37;;;;;;;0.00;0.00;;;;;;;;;;6160542;23;20458;-79
2023/06/14 01:06:26;;;;;;;0.00;0.00;;;;;;;;;;6162118;23;20016;-79
2023/06/14 01:09:20;;;;;;;0.03;0.03;;;;;;;;;;6160155;23;20124;-79
2023/06/14 01:12:32;;;;;;;0.00;0.00;;;;;;;;;;6161556;23;20096;-78
2023/06/14 01:15:20;;;;;;;0.00;0.00;;;;;;;;;;6163723;23;20075;-79
2023/06/14 01:18:06;;;;;;;0.00;0.00;;;;;;;;;;6163963;23;20020;-79
2023/06/14 01:20:54;;;;;;;0.00;0.00;;;;;;;;;;6164334;23;20104;-79
2023/06/14 01:23:40;;;;;;;0.00;0.00;;;;;;;;;;6164966;23;20029;-79
2023/06/14 01:26:28;;;;;;;0.00;0.00;;;;;;;;;;6165867;23;20017;-79
2023/06/14 01:29:17;;;;;;;0.00;0.00;;;;;;;;;;6163997;23;20415;-79
2023/06/14 01:32:05;;;;;;;0.03;0.03;;;;;;;;;;6162970;23;20307;-79
2023/06/14 01:34:51;;;;;;;0.00;0.00;;;;;;;;;;6164538;23;20494;-78
2023/06/14 01:37:36;;;;;;;0.00;0.00;;;;;;;;;;6164014;23;20016;-78
2023/06/14 01:40:23;;;;;;;0.10;0.10;;;;;;;;;;6163234;23;20199;-79
2023/06/14 01:43:10;;;;;;;0.00;0.00;;;;;;;;;;6164488;23;20493;-78
2023/06/14 01:45:56;;;;;;;0.00;0.00;;;;;;;;;;6164158;23;20024;-79
2023/06/14 01:48:43;;;;;;;0.00;0.00;;;;;;;;;;6163799;23;20032;-79
2023/06/14 01:51:28;;;;;;;0.10;0.10;;;;;;;;;;6162699;23;20342;-79
2023/06/14 01:54:14;;;;;;;0.00;0.00;;;;;;;;;;6162624;23;20025;-79
2023/06/14 01:57:00;;;;;;;0.00;0.00;;;;;;;;;;6163815;23;20273;-79
2023/06/14 01:59:48;;;;;;;0.00;0.00;;;;;;;;;;6164399;23;20029;-79
2023/06/14 02:02:33;;;;;;;0.00;0.00;;;;;;;;;;6161412;23;20021;-78
2023/06/14 02:05:19;;;;;;;0.08;0.08;;;;;;;;;;6165855;23;20059;-79
2023/06/14 02:08:06;;;;;;;0.00;0.00;;;;;;;;;;6165833;23;20017;-79
2023/06/14 02:10:51;;;;;;;0.03;0.03;;;;;;;;;;6163294;23;20728;-79
2023/06/14 02:13:37;;;;;;;0.00;0.00;;;;;;;;;;6164470;23;20009;-79
2023/06/14 02:16:24;;;;;;;0.08;0.08;;;;;;;;;;6143573;23;20113;-79
2023/06/14 02:19:10;;;;;;;0.10;0.10;;;;;;;;;;6163496;23;20104;-78
2023/06/14 02:21:56;;;;;;;0.08;0.03;;;;;;;;;;6162719;23;20477;-79
2023/06/14 02:24:42;;;;;;;0.00;0.00;;;;;;;;;;6163376;23;20036;-79
2023/06/14 02:27:28;;;;;;;0.00;0.00;;;;;;;;;;6162833;23;20304;-79
2023/06/14 02:30:15;;;;;;;0.10;0.10;;;;;;;;;;6163253;23;20516;-79
2023/06/14 02:33:01;;;;;;;0.00;0.00;;;;;;;;;;6163681;23;20116;-79
2023/06/14 02:35:47;;;;;;;0.00;0.00;;;;;;;;;;6163913;23;20410;-79
2023/06/14 02:38:33;;;;;;;0.00;0.00;;;;;;;;;;6165545;23;20330;-79
2023/06/14 02:41:18;;;;;;;0.00;0.00;;;;;;;;;;6162586;23;20074;-80
2023/06/14 02:44:04;;;;;;;0.00;0.00;;;;;;;;;;6162965;23;20412;-79
2023/06/14 02:46:50;;;;;;;0.10;0.10;;;;;;;;;;6144214;23;20100;-80
2023/06/14 02:49:37;;;;;;;0.30;0.10;;;;;;;;;;6145744;23;20108;-79
2023/06/14 02:52:25;;;;;;;0.10;0.10;;;;;;;;;;6162791;23;20016;-79
2023/06/14 02:55:10;;;;;;;0.00;0.00;;;;;;;;;;6161172;23;20024;-79
2023/06/14 02:57:57;;;;;;;0.00;0.00;;;;;;;;;;6162991;23;20383;-79
2023/06/14 03:00:43;;;;;;;0.00;0.00;;;;;;;;;;6162663;23;20304;-79
2023/06/14 03:03:29;;;;;;;0.08;0.08;;;;;;;;;;6161889;23;20067;-78
2023/06/14 03:06:16;;;;;;;0.00;0.00;;;;;;;;;;6162130;23;20104;-79
2023/06/14 03:09:10;;;;;;;0.10;0.10;;;;;;;;;;6162107;23;20132;-78
2023/06/14 03:11:58;;;;;;;0.03;0.03;;;;;;;;;;6162284;23;20017;-78
2023/06/14 03:14:45;;;;;;;0.00;0.00;;;;;;;;;;6162660;23;20476;-78
2023/06/14 03:17:33;;;;;;;0.00;0.00;;;;;;;;;;6162015;23;20021;-78
2023/06/14 03:20:20;;;;;;;0.00;0.00;;;;;;;;;;6162861;23;20505;-79
2023/06/14 03:23:08;;;;;;;0.00;0.00;;;;;;;;;;6162239;23;20376;-78
2023/06/14 03:25:54;;;;;;;0.10;0.10;;;;;;;;;;6161908;23;20013;-78
2023/06/14 03:28:40;;;;;;;0.10;0.10;;;;;;;;;;6162411;23;20343;-78
2023/06/14 03:31:25;;;;;;;0.10;0.10;;;;;;;;;;6160356;23;20019;-78
2023/06/14 03:34:12;;;;;;;0.10;0.10;;;;;;;;;;6163981;23;20042;-79
2023/06/14 03:36:59;;;;;;;0.00;0.00;;;;;;;;;;6142068;23;20017;-78
2023/06/14 03:39:47;;;;;;;0.10;0.10;;;;;;;;;;6162695;23;20013;-78
2023/06/14 03:42:36;;;;;;;0.00;0.00;;;;;;;;;;6161789;23;20017;-78
2023/06/14 03:45:22;;;;;;;0.10;0.10;;;;;;;;;;6159509;23;20021;-78
2023/06/14 03:48:09;;;;;;;0.10;0.10;;;;;;;;;;6161672;23;20013;-79
2023/06/14 03:50:55;;;;;;;0.08;0.00;;;;;;;;;;6161585;23;20071;-78
2023/06/14 03:53:41;;;;;;;0.10;0.10;;;;;;;;;;6163967;23;20020;-78
2023/06/14 03:56:27;;;;;;;0.00;0.00;;;;;;;;;;6162041;23;20019;-78
2023/06/14 03:59:13;;;;;;;0.00;0.00;;;;;;;;;;6161982;23;20313;-79
2023/06/14 04:01:59;;;;;;;0.10;0.10;;;;;;;;;;6163609;23;20041;-79
2023/06/14 04:04:45;;;;;;;0.10;0.10;;;;;;;;;;6165094;23;20009;-79
2023/06/14 04:07:31;;;;;;;0.10;0.10;;;;;;;;;;6162471;23;20343;-78
2023/06/14 04:10:17;;;;;;;0.10;0.10;;;;;;;;;;6162416;23;20017;-79
2023/06/14 04:23:43;;;;;;;0.10;0.10;;;;;;;;;;6139837;22;1331845;-78
2023/06/14 04:26:33;;;;;;;0.10;0.10;;;;;;;;;;6171461;23;20096;-78
2023/06/14 04:29:19;;;;;;;0.10;0.10;;;;;;;;;;6171889;23;20431;-78
2023/06/14 04:32:13;;;;;;;0.10;0.10;;;;;;;;;;6120384;23;20018;-78
2023/06/14 04:35:02;;;;;;;0.03;0.03;;;;;;;;;;6112934;23;20017;-77
2023/06/14 04:37:49;;;;;;;0.10;0.10;;;;;;;;;;6112558;23;20013;-79
2023/06/14 04:40:42;;;;;;;0.00;0.00;;;;;;;;;;6112598;23;20365;-78
2023/06/14 04:43:29;;;;;;;0.10;0.10;;;;;;;;;;6112565;23;20045;-78
2023/06/14 04:46:18;;;;;;;0.00;0.00;;;;;;;;;;6112308;23;20009;-79
2023/06/14 04:49:04;;;;;;;0.00;0.00;;;;;;;;;;6112753;23;20022;-78
2023/06/14 04:51:59;;;;;;;0.10;0.10;;;;;;;;;;6112477;23;20021;-79
2023/06/14 04:54:47;;;;;;;0.00;0.00;;;;;;;;;;6112086;23;20029;-78
2023/06/14 04:57:38;;;;;;;0.10;0.10;;;;;;;;;;6111579;23;20014;-79
2023/06/14 05:00:24;;;;;;;0.10;0.10;;;;;;;;;;6112111;23;20395;-78
2023/06/14 05:03:12;;;;;;;0.00;0.00;;;;;;;;;;6112497;23;20420;-79
2023/06/14 05:06:00;;;;;;;0.10;0.00;;;;;;;;;;6112644;23;20017;-79
2023/06/14 05:08:46;;;;;;;0.10;0.10;;;;;;;;;;6112398;23;20457;-79
2023/06/14 05:11:32;;;;;;;0.10;0.10;;;;;;;;;;6109823;23;20384;-79
2023/06/14 05:14:18;;;;;;;0.10;0.10;;;;;;;;;;6110867;23;20018;-79
2023/06/14 05:17:05;;;;;;;0.00;0.00;;;;;;;;;;6112305;23;20018;-78
2023/06/14 05:19:51;;;;;;;0.10;0.10;;;;;;;;;;6111209;23;20013;-78
2023/06/14 05:22:37;;;;;;;0.10;0.10;;;;;;;;;;6108011;23;20028;-80
2023/06/14 05:25:22;;;;;;;0.10;0.10;;;;;;;;;;6106223;23;20105;-78
2023/06/14 05:28:08;;;;;;;0.10;0.10;;;;;;;;;;6106745;23;20017;-78
2023/06/14 05:30:54;;;;;;;0.10;0.10;;;;;;;;;;6104005;23;20432;-79
2023/06/14 05:33:40;;;;;;;0.10;0.10;;;;;;;;;;6105058;23;20029;-79
2023/06/14 05:36:28;;;;;;;0.08;0.08;;;;;;;;;;6104049;23;20315;-79
2023/06/14 05:39:13;;;;;;;0.05;0.05;;;;;;;;;;6104420;23;20014;-79
2023/06/14 05:41:59;;;;;;;0.10;0.10;;;;;;;;;;6104629;23;20128;-78
2023/06/14 05:44:45;;;;;;;0.10;0.10;;;;;;;;;;6104507;23;20020;-79
2023/06/14 05:47:31;;;;;;;0.10;0.10;;;;;;;;;;6104665;23;20018;-78
2023/06/14 05:50:16;;;;;;;0.10;0.10;;;;;;;;;;6103820;23;20088;-79
2023/06/14 05:53:02;;;;;;;0.10;0.10;;;;;;;;;;6105339;23;20327;-78
2023/06/14 05:55:48;;;;;;;0.00;0.00;;;;;;;;;;6105193;23;20025;-79
2023/06/14 05:58:34;;;;;;;0.10;0.10;;;;;;;;;;6104664;23;20453;-78
2023/06/14 06:01:21;;;;;;;0.00;0.00;;;;;;;;;;6102144;23;20021;-78
2023/06/14 06:04:07;;;;;;;0.00;0.00;;;;;;;;;;6105599;23;20229;-79
2023/06/14 06:06:52;;;;;;;0.10;0.10;;;;;;;;;;6105362;23;20014;-78
2023/06/14 06:09:38;;;;;;;0.00;0.00;;;;;;;;;;6105143;23;20017;-78
2023/06/14 06:12:24;;;;;;;0.10;0.10;;;;;;;;;;6104427;23;20113;-78
2023/06/14 06:15:12;;;;;;;0.10;0.10;;;;;;;;;;6102784;23;20022;-78
2023/06/14 06:17:58;;;;;;;0.10;0.10;;;;;;;;;;6103985;23;20018;-79
2023/06/14 06:20:45;;;;;;;0.10;0.10;;;;;;;;;;6103192;23;20014;-79
2023/06/14 06:23:33;;;;;;;0.00;0.00;;;;;;;;;;6104351;23;20025;-79
2023/06/14 06:30:17;;;;;;;0.10;0.10;;;;;;;;;;6104355;23;20014;-78
2023/06/14 06:33:03;;;;;;;0.00;0.00;;;;;;;;;;6103323;23;20022;-79
2023/06/14 06:35:49;;;;;;;0.00;0.00;;;;;;;;;;6103550;23;20018;-79
2023/06/14 06:38:35;;;;;;;0.10;0.10;;;;;;;;;;6104706;23;20084;-79
2023/06/14 06:41:21;;;;;;;0.10;0.10;;;;;;;;;;6104781;23;20159;-79
2023/06/14 06:44:07;;;;;;;0.10;0.10;;;;;;;;;;6104120;23;20417;-79
2023/06/14 06:46:52;;;;;;;0.10;0.10;;;;;;;;;;6104167;23;20013;-79
2023/06/14 06:49:38;;;;;;;0.10;0.10;;;;;;;;;;6104755;23;20025;-79
2023/06/14 06:52:24;;;;;;;0.10;0.10;;;;;;;;;;6103716;23;20034;-79
2023/06/14 06:55:11;;;;;;;0.10;0.10;;;;;;;;;;6105038;23;20041;-79
2023/06/14 06:57:56;;;;;;;0.00;0.00;;;;;;;;;;6104106;23;20610;-79
2023/06/14 07:00:42;;;;;;;0.10;0.10;;;;;;;;;;6104475;23;20018;-78
2023/06/14 07:03:29;;;;;;;0.00;0.00;;;;;;;;;;6102912;23;20128;-78
2023/06/14 07:06:18;;;;;;;0.10;0.10;;;;;;;;;;6103686;23;20018;-79
2023/06/14 07:09:06;;;;;;;0.10;0.10;;;;;;;;;;6103083;23;20208;-78
2023/06/14 07:11:52;;;;;;;0.10;0.10;;;;;;;;;;6105199;23;20041;-79
2023/06/14 07:14:38;;;;;;;0.10;0.10;;;;;;;;;;6102589;23;20024;-79
2023/06/14 07:17:24;;;;;;;0.00;0.00;;;;;;;;;;6104465;23;20025;-79
2023/06/14 07:20:14;;;;;;;0.00;0.00;;;;;;;;;;6104613;23;20018;-80
2023/06/14 07:23:00;;;;;;;0.08;0.08;;;;;;;;;;6104120;23;20364;-79
2023/06/14 07:25:45;;;;;;;0.03;0.03;;;;;;;;;;6104851;23;20447;-79
2023/06/14 07:28:31;;;;;;;0.00;0.00;;;;;;;;;;6104998;23;20013;-79
2023/06/14 07:31:19;;;;;;;0.00;0.00;;;;;;;;;;6104932;23;20018;-79
2023/06/14 07:34:04;;;;;;;0.10;0.10;;;;;;;;;;6104570;23;20089;-78
2023/06/14 07:36:51;;;;;;;0.10;0.10;;;;;;;;;;6104051;23;20025;-78
2023/06/14 07:39:36;;;;;;;0.10;0.10;;;;;;;;;;6104337;23;20018;-78
2023/06/14 07:42:22;;;;;;;0.00;0.00;;;;;;;;;;6104039;23;20093;-79
2023/06/14 07:45:08;;;;;;;0.10;0.10;;;;;;;;;;6083090;23;20424;-79
2023/06/14 07:47:54;;;;;;;0.05;0.05;;;;;;;;;;6105264;23;20507;-79
2023/06/14 07:50:40;;;;;;;0.10;0.10;;;;;;;;;;6102888;23;20021;-81
2023/06/14 07:53:25;;;;;;;0.10;0.10;;;;;;;;;;6104807;23;20082;-79
2023/06/14 07:56:11;;;;;;;0.00;0.00;;;;;;;;;;6103184;23;20491;-78
2023/06/14 07:58:57;;;;;;;0.00;0.00;;;;;;;;;;6103996;23;20388;-78
2023/06/14 08:01:46;;;;;;;0.10;0.10;;;;;;;;;;6103879;23;20021;-78
2023/06/14 08:04:32;;;;;;;0.08;0.08;;;;;;;;;;6104054;23;20014;-78
2023/06/14 08:07:18;;;;;;;0.10;0.10;;;;;;;;;;6102094;23;20048;-78
2023/06/14 08:10:04;;;;;;;0.10;0.10;;;;;;;;;;6104741;23;20018;-78
2023/06/14 08:12:50;;;;;;;0.00;0.00;;;;;;;;;;6104079;23;20018;-79
2023/06/14 08:15:35;;;;;;;0.10;0.10;;;;;;;;;;6104778;23;20097;-79
2023/06/14 08:18:21;;;;;;;0.10;0.10;;;;;;;;;;6103326;23;20352;-79
2023/06/14 08:21:07;;;;;;;0.00;0.00;;;;;;;;;;6104521;23;20025;-79
2023/06/14 08:23:53;;;;;;;0.00;0.00;;;;;;;;;;6104285;23;20025;-79
2023/06/14 08:26:39;;;;;;;0.00;0.00;;;;;;;;;;6104677;23;20080;-79
2023/06/14 08:29:24;;;;;;;0.10;0.10;;;;;;;;;;6101602;23;20024;-79
2023/06/14 08:32:10;;;;;;;0.00;0.00;;;;;;;;;;6104421;23;20440;-79
2023/06/14 08:34:56;;;;;;;0.00;0.00;;;;;;;;;;6105339;23;20030;-79
2023/06/14 08:37:41;;;;;;;0.10;0.10;;;;;;;;;;6105934;23;20364;-79
2023/06/14 08:40:30;;;;;;;0.00;0.00;;;;;;;;;;6103996;23;20036;-79
2023/06/14 08:43:16;;;;;;;0.00;0.00;;;;;;;;;;6105796;23;20026;-79
2023/06/14 08:46:06;;;;;;;0.10;0.10;;;;;;;;;;6105232;23;20077;-79
2023/06/14 08:48:56;;;;;;;0.00;0.00;;;;;;;;;;6104600;23;20172;-79
2023/06/14 08:51:43;;;;;;;0.10;0.10;;;;;;;;;;6104559;23;20025;-79
2023/06/14 08:54:34;;;;;;;0.00;0.00;;;;;;;;;;6103071;23;20025;-79
2023/06/14 08:57:20;;;;;;;0.00;0.00;;;;;;;;;;6103674;23;20344;-79
2023/06/14 09:00:15;;;;;;;0.03;0.03;;;;;;;;;;6105929;23;20022;-79
2023/06/14 09:03:01;;;;;;;0.10;0.10;;;;;;;;;;6105729;23;20637;-78
2023/06/14 09:05:47;;;;;;;0.05;0.05;;;;;;;;;;6106289;23;20468;-79
2023/06/14 09:08:33;;;;;;;0.00;0.00;;;;;;;;;;6105868;23;20106;-78
2023/06/14 09:11:19;;;;;;;0.00;0.00;;;;;;;;;;6104294;23;20024;-80
2023/06/14 09:14:04;;;;;;;0.10;0.10;;;;;;;;;;6106535;23;20029;-79
2023/06/14 09:16:53;;;;;;;0.10;0.10;;;;;;;;;;6106526;23;20033;-79
2023/06/14 09:19:39;;;;;;;0.00;0.00;;;;;;;;;;6105941;23;20020;-78
2023/06/14 09:22:25;;;;;;;0.08;0.08;;;;;;;;;;6104633;23;20026;-78
2023/06/14 09:25:15;;;;;;;0.10;0.10;;;;;;;;;;6106533;23;20422;-79
2023/06/14 09:28:00;;;;;;;0.08;0.08;;;;;;;;;;6106435;23;20060;-78
2023/06/14 09:30:46;;;;;;;0.10;0.10;;;;;;;;;;6104082;23;20396;-78
2023/06/14 09:33:32;;;;;;;0.00;0.00;;;;;;;;;;6106029;23;20026;-78
2023/06/14 09:36:20;;;;;;;0.10;0.10;;;;;;;;;;6103275;23;20046;-79
2023/06/14 09:39:08;;;;;;;0.10;0.10;;;;;;;;;;6105908;23;20018;-79
2023/06/14 09:41:53;;;;;;;0.10;0.10;;;;;;;;;;6107322;23;20332;-79
2023/06/14 09:44:39;;;;;;;0.00;0.00;;;;;;;;;;6104518;23;20018;-78
2023/06/14 09:47:25;;;;;;;0.10;0.10;;;;;;;;;;6104846;23;20014;-78
2023/06/14 09:50:11;;;;;;;0.10;0.10;;;;;;;;;;6105451;23;20021;-78
2023/06/14 09:53:00;;;;;;;0.10;0.10;;;;;;;;;;6106026;23;20026;-78
2023/06/14 09:55:47;;;;;;;0.10;0.10;;;;;;;;;;6105224;23;20165;-78
2023/06/14 09:58:36;;;;;;;0.00;0.00;;;;;;;;;;6103962;23;20018;-79
2023/06/14 10:01:29;;;;;;;0.00;0.00;;;;;;;;;;6102250;23;20499;-78
2023/06/14 10:04:19;;;;;;;0.00;0.00;;;;;;;;;;6103201;23;20367;-78
2023/06/14 10:07:05;;;;;;;0.00;0.00;;;;;;;;;;6104354;23;20499;-79
2023/06/14 10:09:53;;;;;;;0.10;0.10;;;;;;;;;;6104942;23;20479;-78
2023/06/14 10:12:41;;;;;;;0.10;0.10;;;;;;;;;;6100196;23;20340;-78
2023/06/14 10:15:31;;;;;;;0.00;0.00;;;;;;;;;;6104158;23;20018;-79
2023/06/14 10:18:24;;;;;;;0.00;0.00;;;;;;;;;;6104963;23;20014;-80
2023/06/14 10:21:11;;;;;;;0.00;0.00;;;;;;;;;;6104149;23;20391;-79
2023/06/14 10:23:58;;;;;;;0.10;0.10;;;;;;;;;;6105058;23;20071;-79
2023/06/14 10:26:57;;;;;;;0.00;0.00;;;;;;;;;;6104309;23;20487;-79
2023/06/14 10:29:52;;;;;;;0.08;0.08;;;;;;;;;;6102857;23;20096;-79
2023/06/14 10:32:57;;;;;;;0.10;0.10;;;;;;;;;;6131543;23;20450;-79
2023/06/14 10:35:43;;;;;;;0.00;0.00;;;;;;;;;;6133490;23;20031;-79
2023/06/14 10:38:30;;;;;;;0.00;0.00;;;;;;;;;;6132841;23;20022;-79
2023/06/14 10:41:16;;;;;;;0.00;0.00;;;;;;;;;;6134101;23;20104;-79
2023/06/14 10:44:14;;;;;;;0.10;0.10;;;;;;;;;;6133182;23;20100;-79
2023/06/14 10:47:01;;;;;;;0.00;0.00;;;;;;;;;;6134248;23;20793;-79
2023/06/14 10:49:50;;;;;;;0.10;0.10;;;;;;;;;;6133231;23;20022;-79
2023/06/14 10:52:43;;;;;;;0.10;0.10;;;;;;;;;;6132420;23;20025;-79
2023/06/14 10:55:34;;;;;;;0.10;0.10;;;;;;;;;;6131903;23;20056;-79
2023/06/14 10:58:20;;;;;;;0.05;0.05;;;;;;;;;;6133008;23;20055;-78
2023/06/14 11:01:06;;;;;;;0.10;0.10;;;;;;;;;;6132724;23;20016;-79
2023/06/14 11:04:01;;;;;;;0.10;0.10;;;;;;;;;;6132361;23;20013;-78
2023/06/14 11:06:47;;;;;;;0.10;0.10;;;;;;;;;;6134138;23;20021;-79
2023/06/14 11:09:37;;;;;;;0.10;0.10;;;;;;;;;;6130935;23;20092;-79
2023/06/14 11:12:24;;;;;;;0.00;0.00;;;;;;;;;;6132292;23;20017;-79
2023/06/14 11:15:10;;;;;;;0.10;0.10;;;;;;;;;;6134268;23;20017;-79
2023/06/14 11:17:57;;;;;;;0.08;0.08;;;;;;;;;;6133971;23;20029;-79
2023/06/14 11:20:45;;;;;;;0.10;0.10;;;;;;;;;;6130535;23;20468;-79
2023/06/14 11:23:31;;;;;;;0.10;0.10;;;;;;;;;;6131644;23;20049;-79
2023/06/14 11:26:24;;;;;;;0.10;0.10;;;;;;;;;;6131287;23;20365;-79
2023/06/14 11:29:10;;;;;;;0.10;0.10;;;;;;;;;;6133139;23;20412;-79
2023/06/14 11:31:55;;;;;;;0.10;0.10;;;;;;;;;;6131482;23;20100;-80
2023/06/14 11:34:42;;;;;;;0.10;0.10;;;;;;;;;;6131776;23;20417;-79
2023/06/14 11:37:28;;;;;;;0.00;0.00;;;;;;;;;;6132095;23;20017;-79
2023/06/14 11:40:14;;;;;;;0.00;0.00;;;;;;;;;;6131518;23;20348;-80
2023/06/14 11:43:01;;;;;;;0.00;0.00;;;;;;;;;;6133066;23;20350;-79
2023/06/14 11:45:50;;;;;;;0.10;0.10;;;;;;;;;;6132160;23;20863;-79
2023/06/14 11:48:36;;;;;;;0.03;0.03;;;;;;;;;;6132536;23;20014;-79
2023/06/14 11:51:22;;;;;;;0.10;0.10;;;;;;;;;;6131734;23;20292;-79
2023/06/14 11:54:08;;;;;;;0.10;0.10;;;;;;;;;;6132396;23;20118;-79
2023/06/14 11:56:54;;;;;;;0.00;0.00;;;;;;;;;;6133172;23;20462;-79
2023/06/14 11:59:40;;;;;;;0.10;0.10;;;;;;;;;;6131925;23;20013;-79
2023/06/14 12:02:29;;;;;;;0.08;0.00;;;;;;;;;;6132034;23;20560;-79
2023/06/14 12:05:14;;;;;;;0.10;0.10;;;;;;;;;;6132855;23;20017;-79
2023/06/14 12:08:02;;;;;;;0.20;0.20;;;;;;;;;;6132193;23;20018;-79
2023/06/14 12:10:51;;;;;;;0.10;0.10;;;;;;;;;;6133078;23;20470;-79
2023/06/14 12:13:40;;;;;;;0.10;0.10;;;;;;;;;;6131706;23;20618;-79
2023/06/14 12:16:37;;;;;;;0.00;0.00;;;;;;;;;;6131242;23;20780;-80
2023/06/14 12:19:25;;;;;;;0.10;0.10;;;;;;;;;;6133129;23;20056;-79
2023/06/14 12:22:14;;;;;;;0.00;0.00;;;;;;;;;;6132226;23;20419;-79
2023/06/14 12:25:00;;;;;;;0.10;0.10;;;;;;;;;;6133361;23;20547;-80
2023/06/14 12:27:46;;;;;;;0.00;0.00;;;;;;;;;;6131950;23;20528;-79
2023/06/14 12:30:32;;;;;;;0.20;0.20;;;;;;;;;;6130687;23;20010;-79
2023/06/14 12:33:18;;;;;;;0.10;0.10;;;;;;;;;;6133002;23;20024;-79
2023/06/14 12:36:05;;;;;;;0.13;0.10;;;;;;;;;;6133577;23;20018;-80
2023/06/14 12:38:53;;;;;;;0.00;0.00;;;;;;;;;;6134598;23;20021;-80
2023/06/14 12:41:41;;;;;;;0.10;0.10;;;;;;;;;;6134960;23;20302;-80
2023/06/14 12:45:02;;;;;;;0.10;0.10;;;;;;;;;;6132898;23;20024;-80
2023/06/14 12:47:48;;;;;;;0.00;0.00;;;;;;;;;;6135667;23;20474;-80
2023/06/14 12:50:34;;;;;;;0.00;0.00;;;;;;;;;;6132338;23;20156;-80
2023/06/14 12:53:20;;;;;;;0.10;0.10;;;;;;;;;;6134740;23;20109;-80
2023/06/14 12:56:06;;;;;;;0.10;0.10;;;;;;;;;;6133949;23;20021;-80
2023/06/14 12:58:52;;;;;;;0.10;0.10;;;;;;;;;;6133848;23;20295;-80
2023/06/14 13:01:38;;;;;;;0.00;0.00;;;;;;;;;;6132485;23;20025;-80
2023/06/14 13:04:23;;;;;;;0.00;0.00;;;;;;;;;;6131593;23;20013;-80
2023/06/14 13:07:10;;;;;;;0.00;0.00;;;;;;;;;;6135253;23;20036;-80
2023/06/14 13:09:56;;;;;;;0.10;0.10;;;;;;;;;;6134265;23;20018;-80
2023/06/14 13:12:41;;;;;;;0.10;0.10;;;;;;;;;;6132702;23;20013;-80
2023/06/14 13:15:27;;;;;;;0.10;0.10;;;;;;;;;;6133214;23;20017;-80
2023/06/14 13:18:13;;;;;;;0.00;0.00;;;;;;;;;;6134205;23;20023;-81
2023/06/14 13:20:59;;;;;;;0.00;0.00;;;;;;;;;;6135140;23;20530;-80
2023/06/14 13:23:44;;;;;;;0.00;0.00;;;;;;;;;;6132997;23;20025;-80
2023/06/14 13:26:30;;;;;;;0.10;0.10;;;;;;;;;;6133830;23;20538;-80
2023/06/14 13:29:16;;;;;;;0.00;0.00;;;;;;;;;;6133647;23;20021;-80
2023/06/14 13:32:02;;;;;;;0.00;0.00;;;;;;;;;;6133814;23;20021;-80
2023/06/14 13:34:48;;;;;;;0.00;0.00;;;;;;;;;;6132723;23;20112;-81
2023/06/14 13:37:34;;;;;;;0.00;0.00;;;;;;;;;;6132499;23;20017;-80
2023/06/14 13:40:20;;;;;;;0.00;0.00;;;;;;;;;;6134272;23;20467;-80
2023/06/14 13:43:05;;;;;;;0.00;0.00;;;;;;;;;;6131465;23;20056;-81
2023/06/14 13:45:51;;;;;;;0.00;0.00;;;;;;;;;;6134330;23;20017;-80
2023/06/14 13:48:37;;;;;;;0.20;0.20;;;;;;;;;;6132994;23;20018;-80
2023/06/14 13:51:23;;;;;;;0.03;0.00;;;;;;;;;;6132545;23;20706;-81
2023/06/14 13:54:08;;;;;;;0.00;0.00;;;;;;;;;;6133968;23;20442;-80
2023/06/14 13:56:54;;;;;;;0.00;0.00;;;;;;;;;;6133750;23;20013;-80
2023/06/14 13:59:40;;;;;;;0.00;0.00;;;;;;;;;;6133612;23;20519;-80
2023/06/14 14:02:28;;;;;;;0.00;0.00;;;;;;;;;;6132507;23;20021;-80
2023/06/14 14:05:14;;;;;;;0.10;0.10;;;;;;;;;;6132799;23;20009;-80
2023/06/14 14:08:00;;;;;;;0.10;0.10;;;;;;;;;;6132856;23;20448;-80
2023/06/14 14:10:46;;;;;;;0.10;0.10;;;;;;;;;;6131714;23;20123;-80
2023/06/14 14:13:32;;;;;;;0.00;0.00;;;;;;;;;;6131983;23;20083;-80
2023/06/14 14:16:18;;;;;;;0.00;0.00;;;;;;;;;;6133023;23;20021;-80
2023/06/14 14:19:04;;;;;;;0.00;0.00;;;;;;;;;;6132931;23;20041;-80
2023/06/14 14:21:50;;;;;;;0.10;0.10;;;;;;;;;;6133377;23;20502;-80
2023/06/14 14:24:35;;;;;;;0.10;0.10;;;;;;;;;;6132610;23;20033;-80
2023/06/14 14:27:21;;;;;;;0.20;0.20;;;;;;;;;;6132021;23;20022;-81
2023/06/14 14:30:07;;;;;;;0.10;0.10;;;;;;;;;;6132765;23;20018;-81
2023/06/14 14:32:53;;;;;;;0.10;0.10;;;;;;;;;;6131377;23;20836;-79
2023/06/14 14:35:39;;;;;;;0.00;0.00;;;;;;;;;;6131869;23;20017;-81
2023/06/14 14:38:25;;;;;;;0.30;0.20;;;;;;;;;;6132640;23;20302;-81
2023/06/14 14:41:10;;;;;;;0.10;0.10;;;;;;;;;;6133939;23;20384;-80
2023/06/14 14:43:57;;;;;;;0.00;0.00;;;;;;;;;;6133863;23;20021;-81
2023/06/14 14:46:43;;;;;;;0.00;0.00;;;;;;;;;;6132317;23;20009;-80
2023/06/14 14:49:29;;;;;;;0.00;0.00;;;;;;;;;;6132730;23;20013;-80
2023/06/14 14:52:15;;;;;;;0.00;0.00;;;;;;;;;;6132927;23;20326;-80
2023/06/14 14:55:02;;;;;;;0.00;0.00;;;;;;;;;;6134397;23;20849;-81
2023/06/14 14:57:47;;;;;;;0.10;0.10;;;;;;;;;;6132152;23;20339;-80
2023/06/14 15:00:33;;;;;;;0.10;0.10;;;;;;;;;;6130587;23;20083;-81
2023/06/14 15:03:19;;;;;;;0.10;0.10;;;;;;;;;;6133299;23;20013;-81
2023/06/14 15:06:05;;;;;;;0.10;0.10;;;;;;;;;;6133237;23;20765;-81
2023/06/14 15:08:51;;;;;;;0.00;0.00;;;;;;;;;;6133782;23;20350;-80
2023/06/14 15:11:37;;;;;;;0.00;0.00;;;;;;;;;;6131658;23;20056;-81
2023/06/14 15:14:23;;;;;;;0.00;0.00;;;;;;;;;;6132851;23;20461;-81
2023/06/14 15:17:08;;;;;;;0.08;0.08;;;;;;;;;;6133201;23;20076;-81
2023/06/14 15:19:54;;;;;;;0.10;0.10;;;;;;;;;;6133363;23;20017;-81
2023/06/14 15:22:40;;;;;;;0.10;0.10;;;;;;;;;;6131274;23;20026;-80
2023/06/14 15:25:29;;;;;;;0.10;0.10;;;;;;;;;;6132494;23;20018;-81
2023/06/14 15:28:15;;;;;;;0.00;0.00;;;;;;;;;;6133130;23;20387;-80
2023/06/14 15:31:01;;;;;;;0.10;0.10;;;;;;;;;;6132170;23;20091;-81
2023/06/14 15:33:46;;;;;;;0.10;0.10;;;;;;;;;;6131625;23;20021;-81
2023/06/14 15:36:32;;;;;;;0.00;0.00;;;;;;;;;;6132868;23;20013;-81
2023/06/14 15:39:18;;;;;;;0.10;0.10;;;;;;;;;;6137736;23;20018;-80
2023/06/14 15:42:04;;;;;;;0.00;0.00;;;;;;;;;;6140849;23;20542;-81
2023/06/14 15:44:50;;;;;;;0.00;0.00;;;;;;;;;;6131516;23;20410;-80
2023/06/14 15:47:35;;;;;;;0.00;0.00;;;;;;;;;;6132770;23;20148;-81
2023/06/14 15:50:21;;;;;;;0.00;0.00;;;;;;;;;;6133687;23;20017;-80
2023/06/14 15:53:07;;;;;;;0.00;0.00;;;;;;;;;;6133335;23;20373;-81
2023/06/14 15:55:53;;;;;;;0.10;0.10;;;;;;;;;;6133347;23;20100;-80
2023/06/14 15:58:38;;;;;;;0.03;0.03;;;;;;;;;;6132844;23;20024;-80
2023/06/14 16:01:24;;;;;;;0.10;0.10;;;;;;;;;;6130751;23;20127;-80
2023/06/14 16:04:10;;;;;;;0.10;0.10;;;;;;;;;;6133262;23;20018;-79
2023/06/14 16:06:55;;;;;;;0.10;0.10;;;;;;;;;;6134377;23;20017;-80
2023/06/14 16:09:42;;;;;;;0.00;0.00;;;;;;;;;;6129447;23;20458;-81
2023/06/14 16:12:27;;;;;;;0.10;0.10;;;;;;;;;;6132037;23;20414;-81
2023/06/14 16:15:14;;;;;;;0.10;0.10;;;;;;;;;;6133981;23;20053;-80
2023/06/14 16:18:00;;;;;;;0.10;0.10;;;;;;;;;;6130583;23;20010;-80
2023/06/14 16:20:47;;;;;;;0.10;0.10;;;;;;;;;;6132911;23;20120;-81
2023/06/14 16:23:33;;;;;;;0.00;0.00;;;;;;;;;;6131999;23;20049;-81
2023/06/14 16:26:18;;;;;;;0.00;0.00;;;;;;;;;;6132326;23;20018;-81
2023/06/14 16:29:04;;;;;;;0.05;0.05;;;;;;;;;;6133306;23;20331;-80
2023/06/14 16:31:50;;;;;;;0.00;0.00;;;;;;;;;;6131343;23;20156;-80
2023/06/14 16:34:36;;;;;;;0.00;0.00;;;;;;;;;;6131742;23;20374;-79
2023/06/14 16:37:22;;;;;;;0.00;0.00;;;;;;;;;;6132822;23;20462;-80
2023/06/14 16:40:08;;;;;;;0.00;0.00;;;;;;;;;;6132219;23;20566;-80
2023/06/14 16:42:53;;;;;;;0.00;0.00;;;;;;;;;;6132722;23;20124;-79
2023/06/14 16:45:39;;;;;;;0.00;0.00;;;;;;;;;;6133994;23;20017;-79
2023/06/14 16:48:25;;;;;;;0.00;0.00;;;;;;;;;;6131860;23;20072;-79
2023/06/14 16:51:10;;;;;;;0.00;0.00;;;;;;;;;;6132870;23;20391;-79
2023/06/14 16:53:56;;;;;;;0.10;0.10;;;;;;;;;;6132515;23;20017;-78
2023/06/14 16:56:44;;;;;;;0.00;0.00;;;;;;;;;;6133002;23;20466;-79
2023/06/14 16:59:29;;;;;;;0.00;0.00;;;;;;;;;;6131705;23;20017;-79